createdAt,value
2019-04-29T00:00:20.160Z,5.50
2019-04-29T00:01:07.287Z,5.40
2019-04-29T00:01:54.331Z,5.50
2019-04-29T00:02:40.659Z,5.40
2019-04-29T00:03:26.902Z,5.40
2019-04-29T00:04:26.034Z,5.50
2019-04-29T00:05:19.650Z,5.50
2019-04-29T00:06:13.477Z,5.60
2019-04-29T00:07:11.645Z,5.60
2019-04-29T00:08:09.562Z,5.60
2019-04-29T00:09:07.006Z,5.50
2019-04-29T00:09:53.026Z,5.50
2019-04-29T00:10:39.031Z,5.40
2019-04-29T00:11:25.189Z,5.50
2019-04-29T00:12:11.764Z,5.50
2019-04-29T00:13:00.627Z,5.50
2019-04-29T00:13:46.623Z,5.40
2019-04-29T00:14:34.403Z,5.40
2019-04-29T00:15:30.569Z,5.40
2019-04-29T00:16:33.420Z,5.30
2019-04-29T00:17:25.398Z,5.30
2019-04-29T00:18:17.254Z,5.30
2019-04-29T00:19:40.944Z,5.30
2019-04-29T00:20:45.405Z,5.30
2019-04-29T00:21:31.241Z,5.30
2019-04-29T00:22:17.427Z,5.30
2019-04-29T00:23:03.453Z,5.20
2019-04-29T00:24:02.969Z,5.20
2019-04-29T00:24:37.358Z,5.20
2019-04-29T00:25:23.547Z,5.20
2019-04-29T00:26:09.812Z,5.30
2019-04-29T00:27:18.339Z,5.30
2019-04-29T00:28:04.421Z,5.30
2019-04-29T00:28:50.694Z,5.20
2019-04-29T00:29:36.576Z,5.20
2019-04-29T00:30:22.596Z,5.20
2019-04-29T00:31:08.873Z,5.20
2019-04-29T00:31:55.070Z,5.20
2019-04-29T00:32:41.387Z,5.20
2019-04-29T00:33:27.789Z,5.20
2019-04-29T00:34:14.337Z,5.20
2019-04-29T00:35:01.971Z,5.20
2019-04-29T00:35:48.351Z,5.20
2019-04-29T00:36:44.933Z,5.20
2019-04-29T00:37:57.113Z,5.20
2019-04-29T00:39:02.742Z,5.20
2019-04-29T00:40:12.672Z,5.10
2019-04-29T00:41:17.719Z,5.10
2019-04-29T00:42:32.363Z,5.10
2019-04-29T00:43:29.576Z,5.20
2019-04-29T00:44:16.567Z,5.10
2019-04-29T00:45:02.755Z,5.10
2019-04-29T00:45:48.926Z,5.10
2019-04-29T00:46:35.251Z,5.10
2019-04-29T00:47:21.135Z,5.00
2019-04-29T00:48:07.319Z,5.00
2019-04-29T00:48:53.630Z,5.00
2019-04-29T00:49:39.643Z,5.00
2019-04-29T00:50:25.518Z,4.90
2019-04-29T00:51:11.632Z,4.90
2019-04-29T00:51:57.620Z,4.90
2019-04-29T00:52:43.993Z,4.90
2019-04-29T00:53:30.398Z,4.90
2019-04-29T00:54:40.004Z,4.90
2019-04-29T00:55:27.395Z,4.90
2019-04-29T00:56:13.579Z,4.90
2019-04-29T00:56:59.713Z,4.90
2019-04-29T00:57:45.926Z,4.80
2019-04-29T00:58:32.089Z,4.90
2019-04-29T00:59:17.843Z,4.90
2019-04-29T01:00:05.424Z,4.80
2019-04-29T01:00:51.778Z,4.90
2019-04-29T01:01:37.744Z,4.80
2019-04-29T01:02:23.367Z,4.80
2019-04-29T01:03:09.449Z,4.80
2019-04-29T01:03:55.794Z,4.80
2019-04-29T01:04:41.936Z,4.80
2019-04-29T01:05:28.192Z,4.80
2019-04-29T01:06:14.465Z,4.80
2019-04-29T01:07:00.819Z,4.80
2019-04-29T01:07:47.144Z,4.80
2019-04-29T01:08:33.317Z,4.90
2019-04-29T01:09:20.114Z,4.90
2019-04-29T01:10:06.314Z,4.90
2019-04-29T01:10:52.755Z,5.00
2019-04-29T01:11:39.028Z,4.90
2019-04-29T01:12:25.319Z,4.90
2019-04-29T01:13:11.530Z,4.90
2019-04-29T01:13:57.855Z,4.90
2019-04-29T01:14:44.017Z,4.90
2019-04-29T01:15:30.320Z,4.80
2019-04-29T01:16:16.555Z,4.80
2019-04-29T01:17:02.583Z,4.80
2019-04-29T01:17:48.437Z,4.80
2019-04-29T01:18:34.546Z,4.70
2019-04-29T01:19:23.392Z,4.80
2019-04-29T01:20:10.210Z,4.80
2019-04-29T01:20:56.467Z,4.80
2019-04-29T01:21:42.622Z,4.80
2019-04-29T01:22:29.241Z,4.80
2019-04-29T01:23:15.451Z,4.80
2019-04-29T01:24:01.768Z,4.80
2019-04-29T01:24:48.083Z,4.80
2019-04-29T01:25:34.194Z,4.80
2019-04-29T01:26:51.381Z,4.80
2019-04-29T01:27:42.840Z,4.80
2019-04-29T01:28:50.398Z,4.90
2019-04-29T01:29:36.460Z,4.80
2019-04-29T01:30:49.903Z,4.80
2019-04-29T01:31:36.179Z,4.80
2019-04-29T01:32:22.402Z,4.80
2019-04-29T01:33:08.489Z,4.80
2019-04-29T01:33:58.537Z,4.80
2019-04-29T01:34:50.651Z,4.90
2019-04-29T01:35:36.796Z,4.80
2019-04-29T01:36:40.274Z,4.80
2019-04-29T01:37:40.871Z,4.80
2019-04-29T01:38:26.955Z,4.80
2019-04-29T01:39:13.859Z,4.80
2019-04-29T01:40:12.687Z,4.80
2019-04-29T01:41:05.931Z,4.80
2019-04-29T01:42:14.695Z,4.80
2019-04-29T01:43:00.423Z,4.70
2019-04-29T01:44:00.085Z,4.70
2019-04-29T01:44:46.486Z,4.70
2019-04-29T01:45:32.883Z,4.70
2019-04-29T01:46:19.664Z,4.70
2019-04-29T01:47:06.424Z,4.70
2019-04-29T01:47:52.528Z,4.60
2019-04-29T01:48:38.798Z,4.60
2019-04-29T01:49:25.034Z,4.60
2019-04-29T01:50:11.671Z,4.60
2019-04-29T01:50:58.147Z,4.60
2019-04-29T01:51:44.739Z,4.60
2019-04-29T01:52:32.526Z,4.60
2019-04-29T01:53:19.003Z,4.60
2019-04-29T01:54:05.892Z,4.60
2019-04-29T01:54:54.780Z,4.60
2019-04-29T01:55:41.085Z,4.50
2019-04-29T01:56:27.413Z,4.50
2019-04-29T01:57:13.787Z,4.50
2019-04-29T01:57:59.562Z,4.50
2019-04-29T01:58:45.959Z,4.50
2019-04-29T01:59:32.298Z,4.50
2019-04-29T02:00:18.848Z,4.50
2019-04-29T02:01:05.175Z,4.60
2019-04-29T02:01:51.110Z,4.60
2019-04-29T02:02:37.193Z,4.60
2019-04-29T02:03:23.338Z,4.60
2019-04-29T02:04:09.537Z,4.70
2019-04-29T02:04:56.104Z,4.70
2019-04-29T02:05:42.145Z,4.70
2019-04-29T02:06:28.508Z,4.60
2019-04-29T02:07:15.039Z,4.60
2019-04-29T02:08:01.447Z,4.60
2019-04-29T02:08:48.397Z,4.60
2019-04-29T02:09:39.634Z,4.60
2019-04-29T02:10:30.419Z,4.60
2019-04-29T02:11:16.980Z,4.70
2019-04-29T02:12:03.543Z,4.70
2019-04-29T02:12:50.068Z,4.70
2019-04-29T02:13:36.705Z,4.70
2019-04-29T02:14:23.214Z,4.70
2019-04-29T02:15:09.684Z,4.70
2019-04-29T02:15:56.217Z,4.70
2019-04-29T02:16:44.014Z,4.70
2019-04-29T02:17:30.106Z,4.70
2019-04-29T02:18:18.852Z,4.60
2019-04-29T02:19:04.630Z,4.60
2019-04-29T02:19:50.362Z,4.60
2019-04-29T02:20:36.001Z,4.60
2019-04-29T02:21:22.239Z,4.50
2019-04-29T02:22:33.922Z,4.50
2019-04-29T02:23:29.375Z,4.50
2019-04-29T02:24:17.052Z,4.50
2019-04-29T02:25:08.904Z,4.50
2019-04-29T02:25:54.820Z,4.60
2019-04-29T02:26:41.114Z,4.50
2019-04-29T02:27:26.864Z,4.50
2019-04-29T02:28:13.243Z,4.50
2019-04-29T02:28:59.567Z,4.60
2019-04-29T02:29:45.842Z,4.60
2019-04-29T02:30:40.027Z,4.60
2019-04-29T02:31:38.149Z,4.60
2019-04-29T02:32:24.555Z,4.60
2019-04-29T02:33:10.802Z,4.60
2019-04-29T02:33:57.124Z,4.60
2019-04-29T02:34:43.525Z,4.60
2019-04-29T02:35:30.193Z,4.70
2019-04-29T02:36:18.118Z,4.60
2019-04-29T02:37:06.409Z,4.60
2019-04-29T02:37:52.779Z,4.60
2019-04-29T02:38:45.429Z,4.60
2019-04-29T02:39:54.082Z,4.60
2019-04-29T02:41:05.876Z,4.60
2019-04-29T02:42:02.707Z,4.50
2019-04-29T02:42:57.496Z,4.50
2019-04-29T02:43:44.359Z,4.50
2019-04-29T02:44:30.699Z,4.50
2019-04-29T02:45:20.448Z,4.40
2019-04-29T02:46:06.575Z,4.50
2019-04-29T02:46:52.740Z,4.40
2019-04-29T02:47:39.013Z,4.40
2019-04-29T02:48:29.116Z,4.40
2019-04-29T02:49:12.668Z,4.40
2019-04-29T02:49:58.939Z,4.40
2019-04-29T02:50:44.939Z,4.40
2019-04-29T02:52:02.851Z,4.40
2019-04-29T02:52:48.714Z,4.50
2019-04-29T02:53:34.812Z,4.50
2019-04-29T02:54:21.255Z,4.50
2019-04-29T02:55:08.971Z,4.60
2019-04-29T02:55:56.816Z,4.60
2019-04-29T02:56:45.472Z,4.60
2019-04-29T02:57:39.451Z,4.60
2019-04-29T02:58:40.671Z,4.60
2019-04-29T02:59:30.214Z,4.60
2019-04-29T03:00:36.268Z,4.60
2019-04-29T03:01:33.859Z,4.60
2019-04-29T03:02:30.577Z,4.70
2019-04-29T03:03:22.809Z,4.70
2019-04-29T03:04:20.592Z,4.70
2019-04-29T03:05:12.597Z,4.70
2019-04-29T03:06:00.272Z,4.70
2019-04-29T03:06:46.279Z,4.70
2019-04-29T03:07:32.073Z,4.60
2019-04-29T03:08:18.415Z,4.60
2019-04-29T03:09:06.288Z,4.60
2019-04-29T03:09:52.657Z,4.60
2019-04-29T03:10:39.073Z,4.60
2019-04-29T03:11:25.427Z,4.70
2019-04-29T03:12:11.672Z,4.60
2019-04-29T03:12:58.171Z,4.60
2019-04-29T03:13:44.166Z,4.70
2019-04-29T03:14:30.353Z,4.70
2019-04-29T03:15:31.071Z,4.60
2019-04-29T03:16:18.506Z,4.70
2019-04-29T03:17:05.383Z,4.60
2019-04-29T03:17:52.000Z,4.60
2019-04-29T03:18:42.240Z,4.60
2019-04-29T03:19:32.934Z,4.60
2019-04-29T03:20:27.494Z,4.60
2019-04-29T03:21:39.305Z,4.70
2019-04-29T03:22:25.389Z,4.70
2019-04-29T03:23:19.286Z,4.70
2019-04-29T03:24:05.180Z,4.70
2019-04-29T03:24:51.276Z,4.70
2019-04-29T03:25:37.495Z,4.70
2019-04-29T03:26:23.149Z,4.70
2019-04-29T03:27:09.305Z,4.70
2019-04-29T03:27:55.554Z,4.70
2019-04-29T03:28:41.808Z,4.70
2019-04-29T03:29:28.068Z,4.70
2019-04-29T03:30:14.096Z,4.70
2019-04-29T03:31:00.019Z,4.70
2019-04-29T03:31:45.865Z,4.70
2019-04-29T03:32:32.136Z,4.70
2019-04-29T03:33:18.537Z,4.70
2019-04-29T03:34:04.738Z,4.70
2019-04-29T03:34:53.912Z,4.70
2019-04-29T03:35:41.571Z,4.70
2019-04-29T03:36:28.040Z,4.80
2019-04-29T03:37:14.677Z,4.80
2019-04-29T03:38:00.848Z,4.80
2019-04-29T03:38:47.581Z,4.80
2019-04-29T03:39:34.240Z,4.80
2019-04-29T03:40:20.918Z,4.80
2019-04-29T03:41:07.636Z,4.80
2019-04-29T03:41:55.737Z,4.80
2019-04-29T03:42:42.456Z,4.80
2019-04-29T03:43:28.827Z,4.80
2019-04-29T03:44:17.971Z,4.80
2019-04-29T03:45:05.007Z,4.80
2019-04-29T03:45:51.172Z,4.80
2019-04-29T03:46:37.355Z,4.80
2019-04-29T03:47:23.033Z,4.80
2019-04-29T03:48:09.296Z,4.80
2019-04-29T03:48:55.511Z,4.80
2019-04-29T03:49:41.339Z,4.80
2019-04-29T03:50:27.728Z,4.80
2019-04-29T03:51:13.695Z,4.80
2019-04-29T03:51:59.925Z,4.80
2019-04-29T03:52:45.608Z,4.80
2019-04-29T03:53:31.875Z,4.80
2019-04-29T03:54:18.005Z,4.80
2019-04-29T03:55:04.264Z,4.80
2019-04-29T03:55:52.520Z,4.80
2019-04-29T03:56:39.019Z,4.90
2019-04-29T03:57:25.168Z,4.90
2019-04-29T03:58:10.878Z,4.90
2019-04-29T03:58:59.536Z,4.90
2019-04-29T03:59:45.832Z,4.90
2019-04-29T04:00:32.209Z,4.90
2019-04-29T04:01:27.601Z,4.90
2019-04-29T04:02:23.377Z,4.80
2019-04-29T04:03:48.230Z,4.80
2019-04-29T04:04:53.333Z,4.80
2019-04-29T04:05:47.852Z,4.80
2019-04-29T04:06:56.264Z,4.80
2019-04-29T04:08:19.905Z,4.80
2019-04-29T04:09:18.072Z,4.70
2019-04-29T04:10:04.204Z,4.80
2019-04-29T04:10:50.302Z,4.80
2019-04-29T04:11:36.451Z,4.80
2019-04-29T04:12:22.652Z,4.80
2019-04-29T04:13:08.820Z,4.80
2019-04-29T04:13:55.223Z,4.80
2019-04-29T04:14:41.907Z,4.80
2019-04-29T04:15:28.333Z,4.90
2019-04-29T04:16:25.091Z,4.90
2019-04-29T04:17:46.156Z,4.90
2019-04-29T04:18:33.399Z,4.90
2019-04-29T04:19:19.981Z,4.90
2019-04-29T04:20:06.896Z,4.90
2019-04-29T04:20:53.821Z,4.90
2019-04-29T04:21:39.860Z,4.90
2019-04-29T04:22:25.552Z,5.00
2019-04-29T04:23:11.296Z,4.90
2019-04-29T04:23:58.295Z,4.90
2019-04-29T04:24:44.194Z,4.90
2019-04-29T04:25:30.326Z,5.00
2019-04-29T04:26:16.556Z,5.00
2019-04-29T04:27:02.823Z,5.00
2019-04-29T04:27:49.159Z,5.00
2019-04-29T04:28:35.468Z,5.00
2019-04-29T04:29:21.630Z,5.00
2019-04-29T04:30:07.967Z,5.10
2019-04-29T04:30:53.927Z,5.10
2019-04-29T04:31:40.376Z,5.10
2019-04-29T04:32:26.576Z,5.10
2019-04-29T04:33:12.891Z,5.20
2019-04-29T04:33:59.198Z,5.20
2019-04-29T04:34:44.977Z,5.20
2019-04-29T04:35:31.214Z,5.20
2019-04-29T04:36:17.377Z,5.30
2019-04-29T04:37:03.525Z,5.20
2019-04-29T04:37:49.671Z,5.30
2019-04-29T04:38:35.892Z,5.30
2019-04-29T04:39:21.495Z,5.30
2019-04-29T04:40:10.292Z,5.30
2019-04-29T04:41:06.749Z,5.30
2019-04-29T04:41:52.588Z,5.30
2019-04-29T04:42:38.805Z,5.40
2019-04-29T04:43:25.164Z,5.40
2019-04-29T04:44:10.865Z,5.50
2019-04-29T04:44:58.655Z,5.50
2019-04-29T04:45:44.523Z,5.50
2019-04-29T04:46:30.652Z,5.60
2019-04-29T04:47:17.719Z,5.60
2019-04-29T04:48:04.016Z,5.50
2019-04-29T04:48:50.087Z,5.50
2019-04-29T04:49:36.434Z,5.60
2019-04-29T04:50:22.838Z,5.60
2019-04-29T04:51:09.262Z,5.60
2019-04-29T04:51:55.484Z,5.60
2019-04-29T04:52:41.176Z,5.60
2019-04-29T04:53:27.805Z,5.60
2019-04-29T04:54:13.575Z,5.60
2019-04-29T04:54:59.831Z,5.60
2019-04-29T04:55:47.243Z,5.60
2019-04-29T04:56:33.202Z,5.60
2019-04-29T04:57:22.224Z,5.70
2019-04-29T04:58:08.559Z,5.70
2019-04-29T04:58:55.075Z,5.70
2019-04-29T04:59:47.207Z,5.70
2019-04-29T05:00:35.664Z,5.70
2019-04-29T05:01:22.087Z,5.70
2019-04-29T05:02:08.678Z,5.80
2019-04-29T05:02:57.815Z,5.80
2019-04-29T05:03:46.939Z,5.80
2019-04-29T05:04:33.291Z,5.80
2019-04-29T05:05:19.551Z,5.80
2019-04-29T05:06:05.783Z,5.80
2019-04-29T05:06:52.110Z,5.80
2019-04-29T05:07:38.340Z,5.80
2019-04-29T05:08:24.604Z,5.80
2019-04-29T05:09:10.898Z,5.80
2019-04-29T05:09:57.168Z,5.80
2019-04-29T05:10:43.499Z,5.80
2019-04-29T05:11:29.780Z,5.80
2019-04-29T05:12:16.080Z,5.90
2019-04-29T05:13:02.403Z,5.90
2019-04-29T05:13:48.770Z,5.90
2019-04-29T05:14:35.150Z,5.90
2019-04-29T05:15:21.448Z,5.90
2019-04-29T05:16:07.740Z,5.90
2019-04-29T05:16:53.911Z,6.00
2019-04-29T05:17:40.229Z,6.00
2019-04-29T05:18:26.377Z,6.00
2019-04-29T05:19:12.644Z,6.00
2019-04-29T05:19:58.959Z,6.00
2019-04-29T05:20:45.184Z,6.10
2019-04-29T05:21:31.711Z,6.00
2019-04-29T05:22:17.774Z,6.10
2019-04-29T05:23:03.403Z,6.10
2019-04-29T05:23:49.592Z,6.10
2019-04-29T05:24:35.879Z,6.10
2019-04-29T05:25:22.166Z,6.10
2019-04-29T05:26:08.548Z,6.10
2019-04-29T05:26:54.642Z,6.20
2019-04-29T05:27:40.966Z,6.20
2019-04-29T05:28:27.073Z,6.20
2019-04-29T05:29:13.317Z,6.20
2019-04-29T05:29:59.669Z,6.20
2019-04-29T05:30:45.478Z,6.20
2019-04-29T05:31:31.975Z,6.30
2019-04-29T05:32:18.202Z,6.30
2019-04-29T05:33:03.963Z,6.30
2019-04-29T05:33:50.132Z,6.30
2019-04-29T05:34:41.760Z,6.40
2019-04-29T05:35:32.815Z,6.40
2019-04-29T05:36:38.271Z,6.50
2019-04-29T05:37:28.141Z,6.50
2019-04-29T05:38:42.619Z,6.50
2019-04-29T05:39:31.652Z,6.60
2019-04-29T05:40:36.467Z,6.60
2019-04-29T05:41:24.256Z,6.60
2019-04-29T05:42:16.234Z,6.70
2019-04-29T05:42:58.295Z,6.70
2019-04-29T05:43:53.783Z,6.70
2019-04-29T05:45:11.490Z,6.80
2019-04-29T05:46:17.423Z,6.80
2019-04-29T05:47:12.727Z,6.90
2019-04-29T05:48:05.660Z,6.90
2019-04-29T05:48:51.822Z,6.90
2019-04-29T05:49:44.783Z,6.90
2019-04-29T05:50:47.599Z,6.90
2019-04-29T05:51:48.830Z,6.90
2019-04-29T05:52:52.820Z,7.00
2019-04-29T05:53:47.763Z,7.10
2019-04-29T05:54:33.538Z,7.10
2019-04-29T05:55:19.951Z,7.20
2019-04-29T05:56:05.917Z,7.20
2019-04-29T05:56:52.112Z,7.20
2019-04-29T05:57:38.314Z,7.30
2019-04-29T05:58:24.674Z,7.30
2019-04-29T05:59:12.776Z,7.30
2019-04-29T05:59:58.817Z,7.40
2019-04-29T06:00:54.167Z,7.40
2019-04-29T06:01:42.609Z,7.40
2019-04-29T06:02:33.528Z,7.50
2019-04-29T06:03:15.587Z,7.50
2019-04-29T06:04:02.090Z,7.50
2019-04-29T06:04:51.939Z,7.50
2019-04-29T06:05:36.266Z,7.50
2019-04-29T06:06:22.372Z,7.50
2019-04-29T06:07:08.668Z,7.50
2019-04-29T06:07:56.134Z,7.60
2019-04-29T06:08:42.444Z,7.60
2019-04-29T06:09:29.419Z,7.60
2019-04-29T06:10:18.062Z,7.60
2019-04-29T06:11:04.209Z,7.70
2019-04-29T06:11:50.610Z,7.70
2019-04-29T06:12:36.957Z,7.80
2019-04-29T06:13:23.293Z,7.70
2019-04-29T06:14:09.485Z,7.80
2019-04-29T06:14:55.967Z,7.80
2019-04-29T06:15:42.316Z,7.80
2019-04-29T06:16:28.931Z,7.80
2019-04-29T06:17:14.832Z,7.90
2019-04-29T06:18:01.351Z,7.90
2019-04-29T06:18:47.780Z,7.90
2019-04-29T06:19:35.098Z,8.00
2019-04-29T06:20:22.865Z,8.00
2019-04-29T06:21:09.782Z,8.00
2019-04-29T06:21:55.652Z,8.10
2019-04-29T06:22:43.517Z,8.10
2019-04-29T06:23:29.874Z,8.20
2019-04-29T06:24:16.104Z,8.20
2019-04-29T06:25:02.316Z,8.20
2019-04-29T06:25:48.405Z,8.20
2019-04-29T06:26:34.781Z,8.30
2019-04-29T06:27:20.713Z,8.30
2019-04-29T06:28:06.895Z,8.30
2019-04-29T06:28:53.417Z,8.40
2019-04-29T06:29:39.909Z,8.40
2019-04-29T06:30:26.036Z,8.40
2019-04-29T06:31:12.370Z,8.40
2019-04-29T06:31:58.599Z,8.40
2019-04-29T06:32:44.970Z,8.40
2019-04-29T06:33:31.412Z,8.50
2019-04-29T06:34:18.059Z,8.50
2019-04-29T06:35:04.007Z,8.60
2019-04-29T06:35:50.528Z,8.60
2019-04-29T06:36:36.583Z,8.70
2019-04-29T06:37:22.897Z,8.70
2019-04-29T06:38:08.912Z,8.70
2019-04-29T06:38:55.520Z,8.80
2019-04-29T06:39:42.165Z,8.80
2019-04-29T06:40:30.574Z,8.80
2019-04-29T06:41:16.437Z,8.80
2019-04-29T06:42:03.139Z,8.90
2019-04-29T06:42:52.925Z,8.90
2019-04-29T06:43:37.268Z,8.90
2019-04-29T06:44:23.759Z,8.90
2019-04-29T06:45:10.022Z,8.90
2019-04-29T06:45:57.734Z,9.00
2019-04-29T06:46:43.923Z,9.00
2019-04-29T06:47:30.417Z,9.00
2019-04-29T06:48:16.594Z,9.10
2019-04-29T06:49:10.155Z,9.10
2019-04-29T06:49:51.078Z,9.20
2019-04-29T06:50:37.488Z,9.20
2019-04-29T06:51:23.583Z,9.30
2019-04-29T06:52:10.187Z,9.30
2019-04-29T06:52:56.720Z,9.30
2019-04-29T06:53:43.009Z,9.40
2019-04-29T06:54:29.625Z,9.50
2019-04-29T06:55:17.296Z,9.50
2019-04-29T06:56:09.166Z,9.60
2019-04-29T06:57:01.085Z,9.60
2019-04-29T06:57:47.456Z,9.70
2019-04-29T06:58:36.596Z,9.80
2019-04-29T06:59:22.070Z,9.80
2019-04-29T07:00:08.986Z,9.90
2019-04-29T07:01:00.318Z,10.00
2019-04-29T07:01:42.754Z,10.10
2019-04-29T07:02:29.023Z,10.20
2019-04-29T07:03:15.440Z,10.30
2019-04-29T07:04:01.533Z,10.50
2019-04-29T07:04:48.030Z,10.70
2019-04-29T07:05:34.830Z,11.10
2019-04-29T07:06:21.229Z,12.00
2019-04-29T07:07:07.990Z,12.70
2019-04-29T07:07:54.698Z,13.10
2019-04-29T07:08:41.218Z,13.90
2019-04-29T07:09:27.921Z,14.50
2019-04-29T07:10:16.574Z,14.70
2019-04-29T07:11:03.156Z,15.20
2019-04-29T07:11:49.745Z,15.60
2019-04-29T07:12:36.443Z,15.90
2019-04-29T07:13:24.545Z,16.30
2019-04-29T07:14:10.868Z,16.50
2019-04-29T07:15:01.496Z,16.80
2019-04-29T07:15:48.975Z,16.40
2019-04-29T07:16:35.415Z,15.70
2019-04-29T07:17:21.583Z,15.60
2019-04-29T07:18:07.868Z,15.40
2019-04-29T07:18:53.995Z,15.20
2019-04-29T07:19:40.152Z,14.70
2019-04-29T07:20:26.384Z,14.80
2019-04-29T07:21:13.129Z,14.80
2019-04-29T07:21:59.427Z,14.20
2019-04-29T07:22:45.650Z,14.70
2019-04-29T07:23:31.354Z,15.90
2019-04-29T07:24:20.214Z,16.80
2019-04-29T07:25:05.687Z,17.60
2019-04-29T07:25:51.802Z,18.50
2019-04-29T07:26:38.102Z,19.00
2019-04-29T07:27:24.384Z,19.40
2019-04-29T07:28:13.683Z,19.90
2019-04-29T07:28:58.432Z,20.10
2019-04-29T07:29:44.867Z,20.80
2019-04-29T07:30:31.084Z,21.80
2019-04-29T07:31:17.423Z,22.60
2019-04-29T07:32:04.784Z,23.40
2019-04-29T07:32:52.384Z,23.30
2019-04-29T07:33:38.778Z,23.60
2019-04-29T07:34:29.016Z,24.10
2019-04-29T07:35:13.347Z,24.20
2019-04-29T07:36:10.272Z,24.60
2019-04-29T07:36:47.041Z,25.10
2019-04-29T07:37:34.147Z,25.10
2019-04-29T07:38:21.279Z,25.70
2019-04-29T07:39:07.648Z,26.50
2019-04-29T07:39:53.870Z,26.80
2019-04-29T07:40:43.278Z,26.80
2019-04-29T07:41:28.891Z,26.60
2019-04-29T07:42:15.256Z,26.40
2019-04-29T07:43:02.938Z,26.40
2019-04-29T07:43:50.348Z,26.00
2019-04-29T07:44:52.637Z,26.00
2019-04-29T07:46:06.036Z,26.60
2019-04-29T07:47:01.942Z,26.80
2019-04-29T07:47:55.546Z,27.30
2019-04-29T07:48:30.726Z,27.50
2019-04-29T07:49:18.929Z,27.90
2019-04-29T07:50:06.171Z,28.00
2019-04-29T07:50:52.869Z,28.50
2019-04-29T07:51:40.765Z,28.70
2019-04-29T07:52:26.833Z,29.00
2019-04-29T07:53:13.175Z,28.90
2019-04-29T07:53:59.585Z,28.90
2019-04-29T07:54:48.278Z,29.00
2019-04-29T07:55:33.742Z,29.10
2019-04-29T07:56:20.027Z,29.10
2019-04-29T07:57:06.311Z,28.70
2019-04-29T07:57:53.282Z,28.20
2019-04-29T07:58:39.482Z,27.20
2019-04-29T07:59:25.801Z,26.80
2019-04-29T08:00:14.675Z,27.30
2019-04-29T08:01:00.960Z,27.30
2019-04-29T08:01:46.723Z,28.10
2019-04-29T08:02:33.294Z,28.80
2019-04-29T08:03:19.422Z,29.50
2019-04-29T08:04:05.574Z,30.10
2019-04-29T08:04:51.848Z,29.90
2019-04-29T08:05:38.000Z,29.20
2019-04-29T08:06:23.844Z,29.60
2019-04-29T08:07:10.118Z,30.30
2019-04-29T08:07:56.995Z,31.10
2019-04-29T08:08:54.843Z,31.50
2019-04-29T08:09:33.667Z,31.70
2019-04-29T08:10:23.736Z,31.40
2019-04-29T08:11:07.617Z,32.10
2019-04-29T08:11:53.644Z,31.50
2019-04-29T08:12:39.864Z,31.30
2019-04-29T08:13:27.067Z,31.20
2019-04-29T08:14:13.929Z,31.00
2019-04-29T08:15:07.558Z,30.90
2019-04-29T08:15:48.152Z,30.70
2019-04-29T08:16:34.320Z,30.60
2019-04-29T08:17:20.424Z,30.40
2019-04-29T08:18:10.964Z,30.40
2019-04-29T08:18:54.944Z,30.60
2019-04-29T08:19:41.144Z,30.70
2019-04-29T08:20:27.179Z,30.70
2019-04-29T08:21:14.318Z,30.60
2019-04-29T08:22:01.208Z,30.70
2019-04-29T08:22:47.308Z,31.00
2019-04-29T08:23:40.977Z,31.10
2019-04-29T08:24:21.516Z,30.70
2019-04-29T08:25:07.997Z,30.60
2019-04-29T08:25:57.500Z,30.60
2019-04-29T08:26:47.527Z,30.80
2019-04-29T08:27:39.793Z,30.70
2019-04-29T08:28:18.316Z,30.40
2019-04-29T08:29:04.494Z,30.20
2019-04-29T08:29:50.768Z,30.40
2019-04-29T08:30:37.063Z,30.50
2019-04-29T08:31:23.194Z,31.00
2019-04-29T08:32:09.318Z,30.90
2019-04-29T08:32:55.459Z,30.40
2019-04-29T08:33:42.481Z,30.40
2019-04-29T08:34:29.261Z,30.80
2019-04-29T08:35:14.973Z,31.30
2019-04-29T08:36:01.147Z,31.10
2019-04-29T08:36:47.450Z,30.90
2019-04-29T08:37:33.575Z,30.80
2019-04-29T08:38:19.591Z,30.80
2019-04-29T08:39:08.875Z,30.50
2019-04-29T08:40:14.769Z,30.50
2019-04-29T08:40:45.065Z,30.90
2019-04-29T08:41:30.065Z,31.20
2019-04-29T08:42:21.280Z,31.30
2019-04-29T08:43:26.032Z,31.30
2019-04-29T08:44:34.750Z,30.90
2019-04-29T08:45:39.078Z,31.50
2019-04-29T08:46:30.535Z,31.00
2019-04-29T08:47:22.952Z,31.00
2019-04-29T08:48:08.013Z,31.00
2019-04-29T08:48:54.399Z,31.20
2019-04-29T08:49:40.375Z,31.00
2019-04-29T08:50:26.730Z,30.80
2019-04-29T08:51:13.396Z,30.20
2019-04-29T08:51:59.312Z,30.50
2019-04-29T08:52:45.350Z,30.50
2019-04-29T08:53:31.195Z,30.70
2019-04-29T08:54:19.986Z,30.90
2019-04-29T08:55:05.839Z,30.80
2019-04-29T08:55:51.821Z,30.70
2019-04-29T08:56:40.775Z,30.70
2019-04-29T08:57:26.438Z,31.10
2019-04-29T08:58:12.977Z,31.50
2019-04-29T08:58:58.962Z,31.50
2019-04-29T08:59:45.292Z,31.50
2019-04-29T09:00:31.377Z,31.20
2019-04-29T09:01:17.748Z,30.90
2019-04-29T09:02:05.172Z,31.10
2019-04-29T09:02:51.915Z,31.00
2019-04-29T09:03:40.452Z,31.30
2019-04-29T09:04:28.518Z,31.50
2019-04-29T09:05:14.536Z,31.40
2019-04-29T09:06:05.593Z,31.10
2019-04-29T09:06:48.399Z,31.20
2019-04-29T09:07:34.667Z,30.60
2019-04-29T09:08:20.516Z,31.00
2019-04-29T09:09:09.189Z,30.50
2019-04-29T09:09:56.169Z,30.50
2019-04-29T09:10:42.875Z,31.10
2019-04-29T09:11:29.068Z,30.70
2019-04-29T09:12:18.962Z,30.90
2019-04-29T09:13:03.177Z,31.50
2019-04-29T09:13:49.825Z,31.40
2019-04-29T09:14:36.177Z,31.30
2019-04-29T09:15:21.924Z,31.60
2019-04-29T09:16:08.506Z,31.50
2019-04-29T09:16:54.375Z,31.70
2019-04-29T09:17:40.607Z,31.90
2019-04-29T09:18:26.774Z,31.80
2019-04-29T09:21:21.991Z,32.10
2019-04-29T09:22:10.018Z,31.00
2019-04-29T09:22:59.992Z,30.90
2019-04-29T09:23:46.073Z,30.20
2019-04-29T09:24:32.416Z,30.30
2019-04-29T09:25:32.793Z,29.60
2019-04-29T09:26:24.976Z,28.80
2019-04-29T09:27:46.157Z,27.50
2019-04-29T09:28:44.990Z,26.80
2019-04-29T09:29:46.290Z,25.20
2019-04-29T09:30:52.256Z,25.40
2019-04-29T09:31:46.716Z,27.10
2019-04-29T09:34:33.287Z,29.30
2019-04-29T09:35:20.264Z,30.20
2019-04-29T09:36:09.560Z,30.10
2019-04-29T09:36:54.775Z,30.70
2019-04-29T09:37:41.156Z,30.70
2019-04-29T09:38:27.487Z,31.00
2019-04-29T09:39:14.175Z,30.90
2019-04-29T09:40:00.696Z,31.10
2019-04-29T09:40:54.405Z,31.00
2019-04-29T09:41:52.490Z,30.30
2019-04-29T09:48:22.691Z,28.50
2019-04-29T09:49:09.048Z,27.30
2019-04-29T09:49:55.248Z,26.40
2019-04-29T09:50:41.942Z,25.70
2019-04-29T09:51:29.908Z,25.00
2019-04-29T09:52:15.856Z,24.30
2019-04-29T09:53:06.306Z,24.20
2019-04-29T09:53:52.480Z,23.90
2019-04-29T09:54:38.615Z,24.60
2019-04-29T09:55:24.827Z,25.50
2019-04-29T09:56:10.987Z,25.90
2019-04-29T09:56:57.183Z,27.10
2019-04-29T09:57:43.533Z,27.70
2019-04-29T09:58:29.750Z,27.70
2019-04-29T09:59:27.079Z,27.80
2019-04-29T10:00:26.942Z,28.30
2019-04-29T10:01:29.791Z,28.50
2019-04-29T10:02:44.343Z,28.30
2019-04-29T10:03:56.120Z,28.80
2019-04-29T10:04:56.787Z,29.50
2019-04-29T10:05:43.972Z,29.90
2019-04-29T10:06:32.697Z,29.90
2019-04-29T10:07:18.515Z,29.40
2019-04-29T10:08:05.141Z,29.30
2019-04-29T10:08:51.333Z,29.40
2019-04-29T10:09:37.737Z,29.10
2019-04-29T10:10:23.927Z,29.20
2019-04-29T10:11:10.157Z,29.20
2019-04-29T10:11:56.439Z,29.30
2019-04-29T10:12:42.735Z,29.20
2019-04-29T10:13:28.959Z,29.30
2019-04-29T10:14:15.139Z,29.40
2019-04-29T10:15:00.817Z,28.90
2019-04-29T10:15:56.025Z,28.90
2019-04-29T10:17:15.368Z,28.80
2019-04-29T10:18:09.641Z,28.70
2019-04-29T10:19:00.631Z,29.10
2019-04-29T10:20:01.846Z,28.90
2019-04-29T10:20:53.626Z,29.10
2019-04-29T10:21:39.784Z,28.90
2019-04-29T10:22:26.076Z,28.80
2019-04-29T10:23:12.392Z,28.50
2019-04-29T10:23:58.638Z,27.10
2019-04-29T10:24:44.937Z,26.30
2019-04-29T10:25:30.816Z,25.80
2019-04-29T10:26:17.172Z,25.60
2019-04-29T10:27:03.423Z,25.40
2019-04-29T10:27:49.484Z,24.50
2019-04-29T10:28:38.625Z,24.20
2019-04-29T10:34:06.141Z,23.40
2019-04-29T10:34:52.295Z,23.30
2019-04-29T10:35:40.820Z,23.80
2019-04-29T10:36:26.705Z,24.10
2019-04-29T10:37:12.738Z,23.70
2019-04-29T10:38:02.841Z,23.70
2019-04-29T10:38:47.122Z,23.50
2019-04-29T10:39:42.422Z,22.80
2019-04-29T10:40:39.525Z,22.90
2019-04-29T10:41:29.871Z,23.10
2019-04-29T10:42:23.082Z,22.90
2019-04-29T10:43:35.805Z,22.90
2019-04-29T10:44:41.632Z,22.80
2019-04-29T10:45:47.819Z,22.80
2019-04-29T10:47:02.513Z,23.00
2019-04-29T10:47:56.167Z,23.20
2019-04-29T10:48:59.067Z,22.80
2019-04-29T10:49:56.332Z,22.70
2019-04-29T10:50:42.458Z,22.40
2019-04-29T10:51:28.599Z,22.60
2019-04-29T10:52:14.837Z,22.30
2019-04-29T10:53:01.412Z,22.60
2019-04-29T10:53:50.947Z,22.50
2019-04-29T10:54:35.499Z,22.60
2019-04-29T10:55:25.650Z,22.10
2019-04-29T10:56:11.001Z,21.90
2019-04-29T10:56:56.982Z,22.00
2019-04-29T10:57:45.015Z,22.20
2019-04-29T10:58:35.475Z,22.60